Time;durP1;ratioP1;P1;durP2;ratioP2;P2;SDS_P1;SDS_P2;PMS_P1;PMS_P2;Temp;Humidity;BMP_temperature;BMP_pressure;BME280_temperature;BME280_humidity;BME280_pressure;Samples;Min_cycle;Max_cycle;Signal;HPM_P1;HPM_P2
2022/12/24 00:01:34;;;;;;;;;;;21.50;38.50;;;;;;482862;246;2013;-40
2022/12/24 00:03:35;;;;;;;;;;;21.60;38.50;;;;;;482976;247;1843;-44
2022/12/24 00:05:37;;;;;;;;;;;21.50;38.60;;;;;;483020;246;2210;-41
2022/12/24 00:07:38;;;;;;;;;;;21.50;38.60;;;;;;482836;246;2149;-44
2022/12/24 00:09:39;;;;;;;;;;;21.50;38.60;;;;;;482935;246;2416;-43
2022/12/24 00:11:41;;;;;;;;;;;21.50;38.50;;;;;;482954;246;2315;-41
2022/12/24 00:13:42;;;;;;;;;;;21.50;38.50;;;;;;482984;246;1726;-43
2022/12/24 00:15:43;;;;;;;;;;;21.50;38.60;;;;;;482947;246;2169;-44
2022/12/24 00:17:46;;;;;;;;;;;21.50;38.60;;;;;;482901;246;1981;-43
2022/12/24 00:19:48;;;;;;;;;;;21.50;38.60;;;;;;483246;246;2160;-43
2022/12/24 00:21:51;;;;;;;;;;;21.50;38.60;;;;;;483135;246;2261;-40
2022/12/24 00:23:52;;;;;;;;;;;21.50;38.70;;;;;;483246;246;2911;-43
2022/12/24 00:25:54;;;;;;;;;;;21.40;38.60;;;;;;483228;246;1672;-44
2022/12/24 00:27:55;;;;;;;;;;;21.40;38.60;;;;;;482987;246;2293;-43
2022/12/24 00:29:56;;;;;;;;;;;21.40;38.70;;;;;;483183;246;2102;-44
2022/12/24 00:31:58;;;;;;;;;;;21.40;38.70;;;;;;483018;246;2431;-44
2022/12/24 00:33:59;;;;;;;;;;;21.40;38.60;;;;;;483267;246;1828;-40
2022/12/24 00:36:01;;;;;;;;;;;21.40;38.60;;;;;;483099;246;3226;-43
2022/12/24 00:38:03;;;;;;;;;;;21.40;38.60;;;;;;482970;246;2255;-44
2022/12/24 00:40:05;;;;;;;;;;;21.40;38.70;;;;;;483060;246;2796;-43
2022/12/24 00:42:07;;;;;;;;;;;21.40;38.60;;;;;;483024;246;1794;-43
2022/12/24 00:44:09;;;;;;;;;;;21.40;38.70;;;;;;482924;247;1811;-44
2022/12/24 00:46:11;;;;;;;;;;;21.40;38.70;;;;;;482956;246;2729;-43
2022/12/24 00:48:13;;;;;;;;;;;21.40;38.70;;;;;;483030;246;1736;-43
2022/12/24 00:50:14;;;;;;;;;;;21.40;38.70;;;;;;482935;246;2242;-44
2022/12/24 00:52:15;;;;;;;;;;;21.30;38.60;;;;;;482989;246;3451;-43
2022/12/24 00:54:17;;;;;;;;;;;21.50;38.70;;;;;;482944;246;2046;-43
2022/12/24 00:56:18;;;;;;;;;;;21.70;38.40;;;;;;482917;246;2736;-43
2022/12/24 00:58:20;;;;;;;;;;;21.90;37.90;;;;;;482801;246;2162;-43
2022/12/24 01:00:21;;;;;;;;;;;22.00;37.60;;;;;;482809;246;2194;-44
2022/12/24 01:02:23;;;;;;;;;;;22.20;37.30;;;;;;482662;246;1981;-41
2022/12/24 01:06:44;;;;;;;;;;;22.40;36.80;;;;;;482609;247;2261;-43
2022/12/24 01:08:45;;;;;;;;;;;22.50;36.60;;;;;;482836;246;2683;-42
2022/12/24 01:10:46;;;;;;;;;;;22.60;36.70;;;;;;482669;246;2073;-42
2022/12/24 01:12:48;;;;;;;;;;;22.50;36.80;;;;;;482690;246;2060;-43
2022/12/24 01:14:49;;;;;;;;;;;22.30;36.90;;;;;;482819;246;2086;-44
2022/12/24 01:16:51;;;;;;;;;;;22.10;37.20;;;;;;482730;246;2192;-43
2022/12/24 01:18:52;;;;;;;;;;;22.00;37.40;;;;;;482836;247;2411;-43
2022/12/24 01:20:53;;;;;;;;;;;21.90;37.70;;;;;;482856;246;2198;-41
2022/12/24 01:22:58;;;;;;;;;;;21.90;37.80;;;;;;482721;246;2178;-41
2022/12/24 01:24:59;;;;;;;;;;;21.80;37.90;;;;;;482888;246;2197;-41
2022/12/24 01:27:00;;;;;;;;;;;21.80;37.90;;;;;;482689;246;3018;-43
2022/12/24 01:29:02;;;;;;;;;;;21.70;38.00;;;;;;482912;246;1714;-43
2022/12/24 01:31:03;;;;;;;;;;;21.70;38.10;;;;;;482705;246;2026;-44
2022/12/24 01:33:05;;;;;;;;;;;21.70;38.10;;;;;;482790;246;2086;-40
2022/12/24 01:35:06;;;;;;;;;;;21.70;38.20;;;;;;482944;246;2280;-40
2022/12/24 01:37:07;;;;;;;;;;;21.60;38.30;;;;;;482781;246;2192;-43
2022/12/24 01:39:09;;;;;;;;;;;21.60;38.20;;;;;;482784;246;2200;-43
2022/12/24 01:43:29;;;;;;;;;;;21.60;38.30;;;;;;482753;246;1747;-44
2022/12/24 01:45:31;;;;;;;;;;;21.60;38.30;;;;;;482839;246;2098;-42
2022/12/24 01:47:32;;;;;;;;;;;21.70;38.30;;;;;;482614;246;2357;-44
2022/12/24 01:49:34;;;;;;;;;;;21.60;38.30;;;;;;482826;246;1950;-43
2022/12/24 01:51:35;;;;;;;;;;;21.60;38.30;;;;;;482606;246;2335;-43
2022/12/24 01:53:37;;;;;;;;;;;21.70;38.20;;;;;;482844;246;2077;-42
2022/12/24 01:55:39;;;;;;;;;;;21.60;38.20;;;;;;482765;246;2363;-43
2022/12/24 01:57:41;;;;;;;;;;;21.60;38.20;;;;;;482825;246;2098;-43
2022/12/24 01:59:42;;;;;;;;;;;21.60;38.30;;;;;;482776;246;2378;-44
2022/12/24 02:01:44;;;;;;;;;;;21.60;38.30;;;;;;482779;246;1750;-44
2022/12/24 02:03:45;;;;;;;;;;;21.60;38.30;;;;;;482768;246;2185;-43
2022/12/24 02:05:47;;;;;;;;;;;21.60;38.20;;;;;;482768;246;1714;-43
2022/12/24 02:07:49;;;;;;;;;;;21.60;38.30;;;;;;482845;246;1898;-40
2022/12/24 02:09:51;;;;;;;;;;;21.60;38.20;;;;;;482880;246;2354;-43
2022/12/24 02:11:52;;;;;;;;;;;21.60;38.20;;;;;;482885;246;1745;-43
2022/12/24 02:13:53;;;;;;;;;;;21.80;38.10;;;;;;482783;246;2236;-43
2022/12/24 02:15:55;;;;;;;;;;;22.00;37.80;;;;;;482869;246;2161;-43
2022/12/24 02:17:59;;;;;;;;;;;22.10;37.40;;;;;;482802;246;2337;-44
2022/12/24 02:20:01;;;;;;;;;;;22.30;37.20;;;;;;482855;246;2506;-41
2022/12/24 02:22:02;;;;;;;;;;;22.40;36.90;;;;;;482823;246;2212;-41
2022/12/24 02:24:03;;;;;;;;;;;22.50;36.80;;;;;;482903;246;3351;-43
2022/12/24 02:26:04;;;;;;;;;;;22.50;36.70;;;;;;482834;246;2531;-41
2022/12/24 02:28:06;;;;;;;;;;;22.40;36.80;;;;;;482435;247;2167;-43
2022/12/24 02:30:07;;;;;;;;;;;22.20;37.10;;;;;;482844;246;1718;-43
2022/12/24 02:32:10;;;;;;;;;;;22.10;37.30;;;;;;482770;246;2177;-43
2022/12/24 02:34:11;;;;;;;;;;;22.00;37.50;;;;;;482699;246;1706;-43
2022/12/24 02:36:14;;;;;;;;;;;22.00;37.70;;;;;;482822;246;2160;-41
2022/12/24 02:38:15;;;;;;;;;;;22.00;37.70;;;;;;482782;246;2232;-44
2022/12/24 02:40:17;;;;;;;;;;;21.90;37.70;;;;;;482799;246;2686;-43
2022/12/24 02:42:18;;;;;;;;;;;21.90;37.80;;;;;;482604;246;2054;-43
2022/12/24 02:44:20;;;;;;;;;;;21.90;37.80;;;;;;482765;246;1978;-43
2022/12/24 02:46:21;;;;;;;;;;;21.90;37.70;;;;;;482682;246;1899;-40
2022/12/24 02:48:22;;;;;;;;;;;21.90;37.80;;;;;;482779;246;2006;-43
2022/12/24 02:50:24;;;;;;;;;;;21.90;37.80;;;;;;482800;246;1902;-43
2022/12/24 02:52:26;;;;;;;;;;;21.80;37.80;;;;;;482636;246;2744;-43
2022/12/24 02:54:27;;;;;;;;;;;21.80;37.90;;;;;;482785;246;2483;-42
2022/12/24 02:56:28;;;;;;;;;;;21.80;37.90;;;;;;482710;246;2180;-43
2022/12/24 02:58:29;;;;;;;;;;;21.80;37.90;;;;;;482793;246;2435;-43
2022/12/24 03:00:31;;;;;;;;;;;21.90;37.90;;;;;;482726;246;1928;-44
2022/12/24 03:02:32;;;;;;;;;;;21.80;37.90;;;;;;482696;246;2083;-42
2022/12/24 03:04:40;;;;;;;;;;;21.80;37.90;;;;;;482839;246;2917;-41
2022/12/24 03:06:41;;;;;;;;;;;21.80;37.90;;;;;;482605;246;1744;-44
2022/12/24 03:08:43;;;;;;;;;;;21.90;37.90;;;;;;482848;246;1862;-44
2022/12/24 03:10:45;;;;;;;;;;;21.90;37.90;;;;;;482790;246;2329;-43
2022/12/24 03:12:47;;;;;;;;;;;21.80;37.90;;;;;;482833;246;2144;-43
2022/12/24 03:14:49;;;;;;;;;;;21.80;37.90;;;;;;482464;246;2154;-43
2022/12/24 03:16:50;;;;;;;;;;;21.80;38.00;;;;;;482574;246;2180;-44
2022/12/24 03:18:53;;;;;;;;;;;21.80;38.10;;;;;;482693;246;2513;-40
2022/12/24 03:20:54;;;;;;;;;;;21.80;38.10;;;;;;482820;246;2110;-41
2022/12/24 03:22:55;;;;;;;;;;;21.80;38.10;;;;;;482730;246;2258;-43
2022/12/24 03:24:57;;;;;;;;;;;21.70;38.10;;;;;;482861;246;1842;-40
2022/12/24 03:26:59;;;;;;;;;;;21.70;38.10;;;;;;482738;246;1912;-42
2022/12/24 03:29:00;;;;;;;;;;;21.70;38.10;;;;;;482757;246;2057;-43
2022/12/24 03:31:02;;;;;;;;;;;21.70;38.10;;;;;;482691;246;1875;-43
2022/12/24 03:33:03;;;;;;;;;;;21.70;38.20;;;;;;482725;246;1976;-43
2022/12/24 03:35:04;;;;;;;;;;;21.70;38.20;;;;;;482801;246;2160;-42
2022/12/24 03:37:06;;;;;;;;;;;21.60;38.20;;;;;;482704;246;2565;-42
2022/12/24 03:39:08;;;;;;;;;;;21.60;38.30;;;;;;482680;247;2371;-43
2022/12/24 03:41:09;;;;;;;;;;;21.60;38.40;;;;;;482865;246;1895;-43
2022/12/24 03:43:11;;;;;;;;;;;21.60;38.30;;;;;;482799;246;1961;-43
2022/12/24 03:45:13;;;;;;;;;;;21.60;38.40;;;;;;482798;246;3137;-40
2022/12/24 03:47:15;;;;;;;;;;;21.50;38.50;;;;;;482638;246;1910;-43
2022/12/24 03:49:16;;;;;;;;;;;21.50;38.50;;;;;;482780;246;1807;-43
2022/12/24 03:51:18;;;;;;;;;;;21.60;38.40;;;;;;482741;246;1910;-43
2022/12/24 03:53:20;;;;;;;;;;;21.60;38.40;;;;;;482811;246;1962;-43
2022/12/24 03:55:21;;;;;;;;;;;21.60;38.40;;;;;;482693;246;2065;-43
2022/12/24 03:57:23;;;;;;;;;;;21.50;38.40;;;;;;482661;246;2218;-40
2022/12/24 03:59:24;;;;;;;;;;;21.50;38.40;;;;;;482821;246;1735;-43
2022/12/24 04:01:25;;;;;;;;;;;21.50;38.40;;;;;;482613;246;2132;-44
2022/12/24 04:03:27;;;;;;;;;;;21.50;38.40;;;;;;482884;246;1988;-44
2022/12/24 04:05:29;;;;;;;;;;;21.50;38.40;;;;;;482846;246;2126;-44
2022/12/24 04:07:30;;;;;;;;;;;21.50;38.40;;;;;;482634;246;2110;-44
2022/12/24 04:09:32;;;;;;;;;;;21.50;38.40;;;;;;482843;246;2137;-44
2022/12/24 04:11:34;;;;;;;;;;;21.50;38.50;;;;;;482789;246;1986;-44
2022/12/24 04:13:36;;;;;;;;;;;21.50;38.50;;;;;;482857;246;2410;-43
2022/12/24 04:15:37;;;;;;;;;;;21.50;38.40;;;;;;482874;246;2306;-43
2022/12/24 04:17:39;;;;;;;;;;;21.50;38.50;;;;;;482869;246;2157;-40
2022/12/24 04:19:41;;;;;;;;;;;21.40;38.50;;;;;;482857;246;1728;-43
2022/12/24 04:21:43;;;;;;;;;;;21.50;38.50;;;;;;482842;246;2342;-40
2022/12/24 04:23:46;;;;;;;;;;;21.50;38.60;;;;;;482880;246;2238;-44
2022/12/24 04:25:46;;;;;;;;;;;21.50;38.50;;;;;;482857;246;1801;-42
2022/12/24 04:27:47;;;;;;;;;;;21.50;38.50;;;;;;482813;246;2069;-43
2022/12/24 04:29:49;;;;;;;;;;;21.50;38.50;;;;;;482811;246;1878;-44
2022/12/24 04:31:51;;;;;;;;;;;21.50;38.60;;;;;;482845;246;2645;-44
2022/12/24 04:33:52;;;;;;;;;;;21.40;38.50;;;;;;482805;246;3405;-40
2022/12/24 04:35:53;;;;;;;;;;;21.50;38.60;;;;;;482719;246;4116;-43
2022/12/24 04:37:55;;;;;;;;;;;21.40;38.50;;;;;;482909;246;2196;-43
2022/12/24 04:39:57;;;;;;;;;;;21.40;38.50;;;;;;482759;246;1787;-41
2022/12/24 04:41:58;;;;;;;;;;;21.40;38.50;;;;;;482720;246;1824;-43
2022/12/24 04:44:00;;;;;;;;;;;21.50;38.50;;;;;;482906;246;2134;-43
2022/12/24 04:46:01;;;;;;;;;;;21.40;38.50;;;;;;482686;246;1927;-44
2022/12/24 04:48:03;;;;;;;;;;;21.50;38.50;;;;;;482659;246;2285;-41
2022/12/24 04:50:04;;;;;;;;;;;21.40;38.50;;;;;;482832;246;2408;-43
2022/12/24 04:52:06;;;;;;;;;;;21.40;38.50;;;;;;482697;246;1930;-44
2022/12/24 04:54:07;;;;;;;;;;;21.40;38.60;;;;;;482804;246;2114;-43
2022/12/24 04:56:09;;;;;;;;;;;21.40;38.50;;;;;;482715;246;1965;-43
2022/12/24 04:58:12;;;;;;;;;;;21.40;38.50;;;;;;482792;246;2196;-43
2022/12/24 05:00:13;;;;;;;;;;;21.40;38.50;;;;;;482846;246;2048;-43
2022/12/24 05:02:15;;;;;;;;;;;21.40;38.60;;;;;;482883;246;2566;-43
2022/12/24 05:04:16;;;;;;;;;;;21.40;38.60;;;;;;482786;246;1962;-43
2022/12/24 05:06:17;;;;;;;;;;;21.30;38.50;;;;;;482827;246;1684;-44
2022/12/24 05:08:19;;;;;;;;;;;21.40;38.60;;;;;;482875;246;2279;-42
2022/12/24 05:10:20;;;;;;;;;;;21.40;38.60;;;;;;482769;246;2367;-43
2022/12/24 05:12:22;;;;;;;;;;;21.40;38.60;;;;;;482846;246;1685;-43
2022/12/24 05:14:23;;;;;;;;;;;21.40;38.60;;;;;;482880;246;1776;-43
2022/12/24 05:16:24;;;;;;;;;;;21.40;38.60;;;;;;482791;246;3910;-40
2022/12/24 05:18:26;;;;;;;;;;;21.40;38.60;;;;;;482545;246;2684;-44
2022/12/24 05:20:27;;;;;;;;;;;21.30;38.60;;;;;;482061;246;1929;-43
2022/12/24 05:27:07;;;;;;;;;;;21.40;38.60;;;;;;482014;246;1741;-40
2022/12/24 05:29:10;;;;;;;;;;;21.40;38.60;;;;;;482643;246;2449;-44
2022/12/24 05:31:11;;;;;;;;;;;21.50;38.60;;;;;;482622;246;1990;-44
2022/12/24 05:33:12;;;;;;;;;;;21.70;38.10;;;;;;482816;246;1984;-40
2022/12/24 05:35:14;;;;;;;;;;;21.90;37.80;;;;;;482764;246;1784;-44
2022/12/24 05:37:16;;;;;;;;;;;22.00;37.40;;;;;;482673;246;2208;-43
2022/12/24 05:39:17;;;;;;;;;;;22.20;37.10;;;;;;482882;246;2029;-43
2022/12/24 05:41:19;;;;;;;;;;;22.40;37.00;;;;;;482844;246;1939;-42
2022/12/24 05:43:21;;;;;;;;;;;22.40;36.70;;;;;;482825;246;1989;-44
2022/12/24 05:45:23;;;;;;;;;;;22.50;36.60;;;;;;482747;246;2217;-40
2022/12/24 05:47:24;;;;;;;;;;;22.60;36.50;;;;;;482642;246;2119;-44
2022/12/24 05:49:26;;;;;;;;;;;22.60;36.30;;;;;;482799;246;1908;-41
2022/12/24 05:51:27;;;;;;;;;;;22.70;36.20;;;;;;482659;246;2137;-44
2022/12/24 05:53:29;;;;;;;;;;;22.80;36.20;;;;;;482738;246;2062;-44
2022/12/24 05:55:30;;;;;;;;;;;22.80;36.10;;;;;;482827;246;3407;-43
2022/12/24 05:57:31;;;;;;;;;;;22.90;36.00;;;;;;482721;246;2400;-43
2022/12/24 05:59:33;;;;;;;;;;;22.90;35.90;;;;;;482804;246;1780;-41
2022/12/24 06:01:34;;;;;;;;;;;22.90;35.90;;;;;;482727;246;2662;-43
2022/12/24 06:03:35;;;;;;;;;;;23.00;35.80;;;;;;482716;246;2704;-43
2022/12/24 06:05:40;;;;;;;;;;;23.00;35.80;;;;;;482794;246;1968;-44
2022/12/24 06:07:38;;;;;;;;;;;23.00;35.70;;;;;;482505;247;2392;-43
2022/12/24 06:09:40;;;;;;;;;;;23.10;35.70;;;;;;482804;246;1721;-43
2022/12/24 06:11:41;;;;;;;;;;;23.10;35.70;;;;;;482304;247;1998;-43
2022/12/24 06:13:43;;;;;;;;;;;23.20;35.60;;;;;;482815;246;2158;-43
2022/12/24 06:15:44;;;;;;;;;;;23.20;35.60;;;;;;482813;246;2475;-41
2022/12/24 06:17:45;;;;;;;;;;;23.20;35.50;;;;;;482770;246;2184;-43
2022/12/24 06:19:47;;;;;;;;;;;23.20;35.40;;;;;;482738;247;3073;-44
2022/12/24 06:21:48;;;;;;;;;;;23.20;35.40;;;;;;482945;246;2082;-44
2022/12/24 06:23:49;;;;;;;;;;;23.30;35.40;;;;;;482807;246;2499;-43
2022/12/24 06:25:51;;;;;;;;;;;23.30;35.40;;;;;;482854;246;2141;-40
2022/12/24 06:27:52;;;;;;;;;;;23.30;35.40;;;;;;482841;246;2971;-44
2022/12/24 06:29:54;;;;;;;;;;;23.30;35.30;;;;;;482842;246;2059;-41
2022/12/24 06:31:55;;;;;;;;;;;23.30;35.30;;;;;;482912;246;2348;-43
2022/12/24 06:33:57;;;;;;;;;;;23.40;35.30;;;;;;482851;246;2307;-44
2022/12/24 06:35:58;;;;;;;;;;;23.40;35.30;;;;;;482896;246;2731;-41
2022/12/24 06:38:00;;;;;;;;;;;23.40;35.20;;;;;;482816;246;2813;-41
2022/12/24 06:40:01;;;;;;;;;;;23.40;35.20;;;;;;482812;246;2071;-43
2022/12/24 06:42:02;;;;;;;;;;;23.40;35.10;;;;;;482778;246;2042;-44
2022/12/24 06:44:04;;;;;;;;;;;23.40;35.20;;;;;;482834;246;2305;-43
2022/12/24 06:46:05;;;;;;;;;;;23.40;35.20;;;;;;482746;246;2523;-40
2022/12/24 06:48:06;;;;;;;;;;;23.30;35.30;;;;;;482786;246;2293;-44
2022/12/24 06:50:08;;;;;;;;;;;23.10;35.60;;;;;;482886;246;2344;-40
2022/12/24 06:52:09;;;;;;;;;;;22.90;36.00;;;;;;482922;246;2831;-41
2022/12/24 06:54:11;;;;;;;;;;;22.80;36.30;;;;;;482952;246;1933;-44
2022/12/24 06:56:12;;;;;;;;;;;22.60;36.50;;;;;;482883;246;2235;-44
2022/12/24 06:58:14;;;;;;;;;;;22.60;36.70;;;;;;482941;246;2152;-40
2022/12/24 07:00:16;;;;;;;;;;;22.40;36.90;;;;;;483082;246;2604;-44
2022/12/24 07:02:18;;;;;;;;;;;22.40;37.00;;;;;;482867;246;1974;-40
2022/12/24 07:04:19;;;;;;;;;;;22.40;37.10;;;;;;483014;246;2332;-40
2022/12/24 07:06:20;;;;;;;;;;;22.40;37.20;;;;;;482847;246;2425;-43
2022/12/24 07:08:22;;;;;;;;;;;22.30;37.20;;;;;;482853;246;1848;-44
2022/12/24 07:10:23;;;;;;;;;;;22.30;37.30;;;;;;482828;246;1975;-41
2022/12/24 07:12:24;;;;;;;;;;;22.20;37.30;;;;;;482826;246;1668;-41
2022/12/24 07:14:26;;;;;;;;;;;22.20;37.40;;;;;;482860;246;2098;-43
2022/12/24 07:16:28;;;;;;;;;;;22.20;37.50;;;;;;482773;246;1970;-43
2022/12/24 07:18:29;;;;;;;;;;;22.20;37.40;;;;;;482797;246;2184;-42
2022/12/24 07:20:30;;;;;;;;;;;22.20;37.50;;;;;;483010;246;2043;-41
2022/12/24 07:22:32;;;;;;;;;;;22.20;37.50;;;;;;482756;246;2033;-43
2022/12/24 07:24:33;;;;;;;;;;;22.20;37.50;;;;;;482931;246;4148;-43
2022/12/24 07:26:34;;;;;;;;;;;22.10;37.50;;;;;;482740;246;2164;-40
2022/12/24 07:28:36;;;;;;;;;;;22.10;37.60;;;;;;482994;246;2169;-43
2022/12/24 07:30:37;;;;;;;;;;;22.10;37.60;;;;;;482915;246;2339;-43
2022/12/24 07:32:39;;;;;;;;;;;22.10;37.70;;;;;;482696;246;2265;-43
2022/12/24 07:34:40;;;;;;;;;;;22.00;37.70;;;;;;482932;246;2040;-43
2022/12/24 07:36:42;;;;;;;;;;;22.00;37.70;;;;;;482638;246;2670;-43
2022/12/24 07:38:43;;;;;;;;;;;22.00;37.70;;;;;;482794;246;2195;-43
2022/12/24 07:40:44;;;;;;;;;;;22.00;37.80;;;;;;482839;246;1857;-43
2022/12/24 07:42:46;;;;;;;;;;;22.00;37.80;;;;;;482907;246;2195;-43
2022/12/24 07:44:47;;;;;;;;;;;22.00;37.80;;;;;;482930;246;2041;-44
2022/12/24 07:46:50;;;;;;;;;;;22.00;37.80;;;;;;482928;246;2433;-43
2022/12/24 07:48:54;;;;;;;;;;;22.00;37.80;;;;;;482942;246;2763;-43
2022/12/24 07:50:55;;;;;;;;;;;22.00;37.90;;;;;;482892;246;2031;-41
2022/12/24 07:52:56;;;;;;;;;;;21.90;37.80;;;;;;482847;246;1818;-42
2022/12/24 07:54:58;;;;;;;;;;;21.90;37.90;;;;;;482880;246;2168;-44
2022/12/24 07:56:59;;;;;;;;;;;21.90;37.90;;;;;;482890;246;2386;-43
2022/12/24 07:59:01;;;;;;;;;;;21.90;38.00;;;;;;482841;246;2555;-42
2022/12/24 08:01:02;;;;;;;;;;;21.90;38.00;;;;;;482767;246;2026;-43
2022/12/24 08:03:03;;;;;;;;;;;21.80;38.00;;;;;;482973;246;2259;-43
2022/12/24 08:05:05;;;;;;;;;;;21.80;38.10;;;;;;482887;246;1786;-43
2022/12/24 08:07:07;;;;;;;;;;;21.80;38.20;;;;;;482765;246;2602;-44
2022/12/24 08:09:08;;;;;;;;;;;21.80;38.20;;;;;;482970;246;1837;-40
2022/12/24 08:11:10;;;;;;;;;;;21.80;38.20;;;;;;482713;246;2082;-40
2022/12/24 08:13:11;;;;;;;;;;;21.80;38.20;;;;;;482993;246;2232;-43
2022/12/24 08:15:13;;;;;;;;;;;21.70;38.10;;;;;;482908;246;2180;-43
2022/12/24 08:17:15;;;;;;;;;;;21.70;38.20;;;;;;482713;246;2167;-43
2022/12/24 08:19:16;;;;;;;;;;;21.70;38.30;;;;;;482768;246;2241;-43
2022/12/24 08:21:17;;;;;;;;;;;21.60;38.30;;;;;;482743;246;2344;-43
2022/12/24 08:23:19;;;;;;;;;;;21.60;38.40;;;;;;482869;246;1864;-43
2022/12/24 08:25:20;;;;;;;;;;;21.60;38.40;;;;;;482855;246;1991;-43
2022/12/24 08:27:22;;;;;;;;;;;21.60;38.40;;;;;;482678;246;3246;-43
2022/12/24 08:29:23;;;;;;;;;;;21.60;38.40;;;;;;482854;246;3204;-43
2022/12/24 08:31:25;;;;;;;;;;;21.60;38.40;;;;;;482767;246;2246;-43
2022/12/24 08:33:27;;;;;;;;;;;21.60;38.40;;;;;;482815;246;2128;-43
2022/12/24 08:35:28;;;;;;;;;;;21.50;38.50;;;;;;482876;246;2424;-41
2022/12/24 08:37:30;;;;;;;;;;;21.50;38.50;;;;;;482681;246;2185;-43
2022/12/24 08:39:31;;;;;;;;;;;21.50;38.60;;;;;;482933;247;2558;-44
2022/12/24 08:41:32;;;;;;;;;;;21.50;38.60;;;;;;482956;246;2346;-43
2022/12/24 08:43:34;;;;;;;;;;;21.50;38.50;;;;;;482863;246;2950;-40
2022/12/24 08:45:35;;;;;;;;;;;21.50;38.50;;;;;;482798;246;2074;-40
2022/12/24 08:47:37;;;;;;;;;;;21.50;38.50;;;;;;482904;246;2013;-43
2022/12/24 08:49:39;;;;;;;;;;;21.50;38.50;;;;;;482856;246;1916;-43
2022/12/24 08:51:40;;;;;;;;;;;21.50;38.50;;;;;;482784;246;2856;-43
2022/12/24 08:53:42;;;;;;;;;;;21.50;38.50;;;;;;482931;246;2281;-42
2022/12/24 08:55:47;;;;;;;;;;;21.50;38.60;;;;;;482827;246;2169;-43
2022/12/24 08:57:50;;;;;;;;;;;21.50;38.70;;;;;;482890;246;2145;-43
2022/12/24 08:59:53;;;;;;;;;;;21.50;38.60;;;;;;482958;246;2082;-41
2022/12/24 09:01:54;;;;;;;;;;;21.40;38.60;;;;;;482736;246;1927;-43
2022/12/24 09:03:55;;;;;;;;;;;21.50;38.70;;;;;;482811;246;2200;-43
2022/12/24 09:05:57;;;;;;;;;;;21.40;38.70;;;;;;482792;246;1738;-43
2022/12/24 09:07:58;;;;;;;;;;;21.40;38.60;;;;;;482836;246;2413;-43
2022/12/24 09:10:00;;;;;;;;;;;21.40;38.60;;;;;;482937;246;2022;-44
2022/12/24 09:12:01;;;;;;;;;;;21.40;38.70;;;;;;482739;246;2316;-42
2022/12/24 09:14:03;;;;;;;;;;;21.40;38.70;;;;;;482825;247;2071;-43
2022/12/24 09:16:04;;;;;;;;;;;21.40;38.70;;;;;;482706;246;2511;-43
2022/12/24 09:18:06;;;;;;;;;;;21.40;38.70;;;;;;482841;246;2169;-42
2022/12/24 09:20:07;;;;;;;;;;;21.30;38.70;;;;;;482951;246;2086;-41
2022/12/24 09:22:09;;;;;;;;;;;21.40;38.80;;;;;;482818;246;1999;-43
2022/12/24 09:24:10;;;;;;;;;;;21.40;38.70;;;;;;482814;246;2373;-43
2022/12/24 09:26:12;;;;;;;;;;;21.40;38.60;;;;;;482817;246;1868;-44
2022/12/24 09:28:13;;;;;;;;;;;21.30;38.60;;;;;;482975;246;1783;-43
2022/12/24 09:30:18;;;;;;;;;;;21.40;38.70;;;;;;482981;246;1976;-43
2022/12/24 09:32:19;;;;;;;;;;;21.30;38.70;;;;;;482767;246;2214;-43
2022/12/24 09:34:21;;;;;;;;;;;21.30;38.60;;;;;;482930;246;1997;-43
2022/12/24 09:36:23;;;;;;;;;;;21.40;38.60;;;;;;482740;246;2532;-43
2022/12/24 09:38:24;;;;;;;;;;;21.30;38.50;;;;;;482824;246;2252;-44
2022/12/24 09:40:25;;;;;;;;;;;21.30;38.60;;;;;;482939;246;2052;-43
2022/12/24 09:42:27;;;;;;;;;;;21.40;38.70;;;;;;482902;246;2219;-41
2022/12/24 09:44:28;;;;;;;;;;;21.30;38.60;;;;;;482886;246;2002;-40
2022/12/24 09:46:29;;;;;;;;;;;21.30;38.60;;;;;;482970;246;2188;-43
2022/12/24 09:48:31;;;;;;;;;;;21.30;38.60;;;;;;482877;246;1996;-43
2022/12/24 09:50:32;;;;;;;;;;;21.30;38.60;;;;;;482965;246;2195;-41
2022/12/24 09:52:33;;;;;;;;;;;21.30;38.70;;;;;;482790;246;2325;-43
2022/12/24 09:54:35;;;;;;;;;;;21.30;38.60;;;;;;482969;246;2080;-44
2022/12/24 09:56:37;;;;;;;;;;;21.40;38.70;;;;;;482866;246;1936;-44
2022/12/24 09:58:38;;;;;;;;;;;21.30;38.70;;;;;;482869;246;3241;-44
2022/12/24 10:00:40;;;;;;;;;;;21.30;38.60;;;;;;482885;246;2363;-43
2022/12/24 10:02:41;;;;;;;;;;;21.30;38.60;;;;;;482842;246;2493;-43
2022/12/24 10:04:42;;;;;;;;;;;21.30;38.60;;;;;;482872;246;2243;-44
2022/12/24 10:06:44;;;;;;;;;;;21.30;38.60;;;;;;482892;246;1709;-43
2022/12/24 10:08:45;;;;;;;;;;;21.30;38.70;;;;;;482915;246;2827;-43
2022/12/24 10:10:47;;;;;;;;;;;21.30;38.60;;;;;;482854;246;2706;-40
2022/12/24 10:12:48;;;;;;;;;;;21.30;38.60;;;;;;482900;246;2662;-44
2022/12/24 10:14:50;;;;;;;;;;;21.50;38.40;;;;;;482806;246;2474;-43
2022/12/24 10:16:51;;;;;;;;;;;21.80;38.00;;;;;;482842;246;2074;-43
2022/12/24 10:18:53;;;;;;;;;;;22.00;37.70;;;;;;482920;246;2224;-43
2022/12/24 10:20:54;;;;;;;;;;;22.10;37.30;;;;;;482833;246;2172;-44
2022/12/24 10:22:56;;;;;;;;;;;22.20;37.00;;;;;;482858;246;2416;-41
2022/12/24 10:24:58;;;;;;;;;;;22.40;36.90;;;;;;482889;246;2227;-41
2022/12/24 10:26:59;;;;;;;;;;;22.50;36.70;;;;;;483007;246;1884;-40
2022/12/24 10:29:01;;;;;;;;;;;22.50;36.50;;;;;;482792;246;2020;-44
2022/12/24 10:31:03;;;;;;;;;;;22.60;36.50;;;;;;482869;246;1972;-41
2022/12/24 10:33:04;;;;;;;;;;;22.60;36.40;;;;;;482810;246;2138;-43
2022/12/24 10:35:06;;;;;;;;;;;22.60;36.50;;;;;;482831;246;2322;-43
2022/12/24 10:37:08;;;;;;;;;;;22.30;36.70;;;;;;482821;246;1940;-43
2022/12/24 10:39:09;;;;;;;;;;;22.20;37.10;;;;;;482766;246;2181;-43
2022/12/24 10:41:11;;;;;;;;;;;22.00;37.30;;;;;;482414;247;2148;-43
2022/12/24 10:43:12;;;;;;;;;;;21.90;37.50;;;;;;482828;246;2175;-44
2022/12/24 10:45:14;;;;;;;;;;;22.00;37.60;;;;;;482939;246;1860;-43
2022/12/24 10:47:15;;;;;;;;;;;22.10;37.30;;;;;;482816;246;2539;-43
2022/12/24 10:49:17;;;;;;;;;;;22.30;37.00;;;;;;482942;246;2878;-44
2022/12/24 10:51:18;;;;;;;;;;;22.40;36.80;;;;;;482818;246;1971;-42
2022/12/24 10:53:20;;;;;;;;;;;22.60;36.60;;;;;;482796;246;2910;-44
2022/12/24 10:55:22;;;;;;;;;;;22.60;36.40;;;;;;482797;246;2244;-44
2022/12/24 10:57:22;;;;;;;;;;;22.50;36.40;;;;;;482888;246;1932;-39
2022/12/24 10:59:24;;;;;;;;;;;22.40;36.70;;;;;;482853;246;2904;-43
2022/12/24 11:01:26;;;;;;;;;;;22.20;36.90;;;;;;482660;246;2423;-43
2022/12/24 11:03:27;;;;;;;;;;;22.10;37.20;;;;;;482785;246;1920;-43
2022/12/24 11:05:29;;;;;;;;;;;22.00;37.40;;;;;;482829;246;2319;-43
2022/12/24 11:07:30;;;;;;;;;;;21.90;37.60;;;;;;482734;246;1773;-40
2022/12/24 11:09:31;;;;;;;;;;;21.90;37.70;;;;;;482814;246;2140;-43
2022/12/24 11:11:33;;;;;;;;;;;21.80;37.80;;;;;;482743;246;2142;-43
2022/12/24 11:13:34;;;;;;;;;;;21.70;37.90;;;;;;482862;246;2193;-44
2022/12/24 11:15:36;;;;;;;;;;;21.70;38.00;;;;;;482981;246;2219;-43
2022/12/24 11:17:38;;;;;;;;;;;21.60;38.00;;;;;;482731;246;1714;-44
2022/12/24 11:19:40;;;;;;;;;;;21.70;38.10;;;;;;482801;246;2197;-43
2022/12/24 11:21:41;;;;;;;;;;;21.60;38.00;;;;;;482967;246;2049;-44
2022/12/24 11:23:43;;;;;;;;;;;21.60;38.10;;;;;;482814;246;1987;-44
2022/12/24 11:25:44;;;;;;;;;;;21.60;38.10;;;;;;482864;246;1706;-43
2022/12/24 11:27:48;;;;;;;;;;;21.60;38.10;;;;;;482831;246;1925;-44
2022/12/24 11:29:47;;;;;;;;;;;21.70;38.10;;;;;;482627;247;2351;-42
2022/12/24 11:31:49;;;;;;;;;;;21.60;38.00;;;;;;482965;246;1871;-40
2022/12/24 11:33:51;;;;;;;;;;;21.70;38.00;;;;;;482891;246;1972;-40
2022/12/24 11:35:52;;;;;;;;;;;21.60;38.00;;;;;;482754;246;2154;-44
2022/12/24 11:37:54;;;;;;;;;;;21.70;38.10;;;;;;482793;247;2409;-43
2022/12/24 11:39:55;;;;;;;;;;;21.70;38.00;;;;;;482853;246;2207;-41
2022/12/24 11:41:57;;;;;;;;;;;21.70;38.00;;;;;;482710;246;1768;-43
2022/12/24 11:43:58;;;;;;;;;;;21.70;37.90;;;;;;482808;246;1846;-40
2022/12/24 11:45:59;;;;;;;;;;;21.70;37.90;;;;;;482808;246;3094;-42
2022/12/24 11:48:01;;;;;;;;;;;21.70;37.90;;;;;;482835;246;1988;-43
2022/12/24 11:50:02;;;;;;;;;;;21.70;38.00;;;;;;482881;246;2451;-44
2022/12/24 11:52:04;;;;;;;;;;;21.70;37.90;;;;;;482677;246;2183;-43
2022/12/24 11:54:05;;;;;;;;;;;21.70;37.90;;;;;;482865;246;2405;-43
2022/12/24 11:56:07;;;;;;;;;;;21.80;37.90;;;;;;482762;246;2169;-43
2022/12/24 11:58:08;;;;;;;;;;;21.80;37.80;;;;;;482901;246;2538;-43
2022/12/24 12:00:10;;;;;;;;;;;21.80;37.80;;;;;;482811;246;2416;-43
2022/12/24 12:02:11;;;;;;;;;;;21.80;37.70;;;;;;482834;246;2427;-43
2022/12/24 12:04:13;;;;;;;;;;;21.80;37.70;;;;;;482850;246;1786;-40
2022/12/24 12:06:14;;;;;;;;;;;21.80;37.70;;;;;;482927;246;2118;-43
2022/12/24 12:08:16;;;;;;;;;;;21.90;37.70;;;;;;482789;246;1884;-41